Aérodrome :
LOGIN :

S'inscrire | Disclaimer

   EN    FR    IT 

 










Légende :    VFR   VFR Marginal   IFR   IFR Intensif   IFR Très Intensif
Visi : 
Plafond : 
>= 8 km
>= 3000ft
5 à 8 km
1000 à 3000 ft
1500m à 5 km
500 à 1000 ft
800 à 1500m
200 à 500 ft
< 800m
< 200 ft
Symboles :   Orages  Brouillard  Fortes neiges  Fortes précipitations  Vent > 20 kt
SIGMETs :   Divers  Orages  Givrage  Turbulence  Onde Orograph.  Cendres Volcan.







- Altitude de l'aérodrome : 392 ft
- Code IATA : CDG
- Voir les cartes d'approche


LFPG - Paris-Aeroport Charles De Gaulle

DERNIER METAR :
  • 221730Z 04004KT 360V080 CAVOK 28/10 Q1015 NOSIG

METARs EXPIRÉS :
  • 221700Z 02004KT 300V060 CAVOK 28/10 Q1016 NOSIG
  • 221630Z VRB03KT CAVOK 28/11 Q1016 NOSIG
  • 221600Z VRB03KT CAVOK 28/12 Q1016 BECMG CAVOK
  • 221530Z 03004KT 320V130 9999 FEW056TCU SCT060 28/12 Q1016 BECMG CAVOK
  • 221500Z VRB05KT 9999 FEW056TCU SCT058 26/12 Q1016 NOSIG

TAF TAF LFPG
Valide du 22 à 18h jusqu'au 24 à 00h UTC


221700Z 2218/2324 36005KT CAVOK TX30/2315Z TN16/2304Z
ATIS : +33 1 48 62 10 92
Pas de NOTAMs connus pour ce terrain.



MET'MAP, la Météo Aéronautique d'un coup d'oeil ! - Copyright ORBIFLY Décembre 2007 - Disclaimer

ORBIFLY MET'MAP TEAM :

Programmation & Développement : Alexandra Zaïnal
Conception & Développement : Baudouin d'Aumeries
Co-Programmation & Développement : Marc-Olivier Méhu
Soutien technique & logistique : Manuel Goepfert

Contact : metmap@orbifly.com




SOURCES & CREDITS :

   NOAA